createdAt,value
2022-12-15T00:00:52.014Z,26.08
2022-12-15T00:03:12.663Z,26.85
2022-12-15T00:05:33.461Z,27.35
2022-12-15T00:07:54.188Z,25.95
2022-12-15T00:10:16.006Z,26.23
2022-12-15T00:12:36.928Z,26.08
2022-12-15T00:14:57.565Z,26.02
2022-12-15T00:17:18.345Z,29.40
2022-12-15T00:19:38.741Z,25.23
2022-12-15T00:21:59.548Z,25.83
2022-12-15T00:24:20.090Z,25.58
2022-12-15T00:26:42.121Z,26.73
2022-12-15T00:29:02.924Z,26.25
2022-12-15T00:31:23.874Z,25.00
2022-12-15T00:33:44.581Z,26.55
2022-12-15T00:36:17.415Z,25.17
2022-12-15T00:38:37.981Z,27.00
2022-12-15T00:40:41.000Z,25.92
2022-12-15T00:42:45.286Z,27.50
2022-12-15T00:44:52.804Z,26.50
2022-12-15T00:46:54.906Z,27.23
2022-12-15T00:48:58.381Z,26.00
2022-12-15T00:51:00.306Z,25.67
2022-12-15T00:53:20.596Z,26.65
2022-12-15T00:55:43.915Z,25.90
2022-12-15T00:58:07.902Z,25.63
2022-12-15T01:00:29.644Z,25.65
2022-12-15T01:02:50.721Z,28.17
2022-12-15T01:05:11.471Z,27.80
2022-12-15T01:07:31.843Z,26.40
2022-12-15T01:09:52.526Z,27.80
2022-12-15T01:12:13.429Z,26.33
2022-12-15T01:14:35.345Z,26.27
2022-12-15T01:16:56.041Z,26.60
2022-12-15T01:19:16.748Z,25.85
2022-12-15T01:21:24.081Z,25.90
2022-12-15T01:23:28.576Z,26.40
2022-12-15T01:25:31.847Z,26.17
2022-12-15T01:27:35.030Z,25.83
2022-12-15T01:29:39.462Z,25.52
2022-12-15T01:31:43.999Z,25.33
2022-12-15T01:33:47.314Z,27.77
2022-12-15T01:35:57.147Z,26.52
2022-12-15T01:38:00.168Z,24.98
2022-12-15T01:40:20.847Z,27.20
2022-12-15T01:42:24.255Z,24.85
2022-12-15T01:44:27.247Z,25.95
2022-12-15T01:46:33.245Z,26.50
2022-12-15T01:48:40.341Z,24.50
2022-12-15T01:50:48.323Z,26.17
2022-12-15T01:52:51.656Z,24.40
2022-12-15T01:54:56.672Z,25.00
2022-12-15T01:57:03.554Z,25.35
2022-12-15T01:59:09.290Z,24.70
2022-12-15T02:01:12.604Z,25.35
2022-12-15T02:03:17.284Z,24.50
2022-12-15T02:05:21.828Z,26.10
2022-12-15T02:07:39.123Z,26.13
2022-12-15T02:09:43.259Z,25.98
2022-12-15T02:11:58.184Z,24.50
2022-12-15T02:14:03.433Z,24.77
2022-12-15T02:16:14.869Z,25.45
2022-12-15T02:18:23.725Z,24.98
2022-12-15T02:20:42.831Z,27.60
2022-12-15T02:23:03.529Z,27.27
2022-12-15T02:25:31.520Z,26.70
2022-12-15T02:27:46.382Z,26.58
2022-12-15T02:30:26.575Z,25.63
2022-12-15T02:32:32.998Z,23.30
2022-12-15T02:34:41.254Z,26.55
2022-12-15T02:36:46.437Z,25.13
2022-12-15T02:38:49.667Z,24.38
2022-12-15T02:40:59.159Z,25.70
2022-12-15T02:43:05.761Z,25.08
2022-12-15T02:45:11.102Z,27.27
2022-12-15T02:47:28.578Z,24.52
2022-12-15T02:49:40.652Z,26.58
2022-12-15T02:51:50.959Z,24.45
2022-12-15T02:54:14.041Z,25.67
2022-12-15T02:56:22.837Z,26.27
2022-12-15T02:58:29.358Z,25.90
2022-12-15T03:00:37.124Z,25.52
2022-12-15T03:02:43.496Z,25.10
2022-12-15T03:04:48.114Z,25.42
2022-12-15T03:07:00.787Z,26.35
2022-12-15T03:09:05.115Z,24.45
2022-12-15T03:11:08.425Z,25.48
2022-12-15T03:13:11.520Z,26.05
2022-12-15T03:15:15.086Z,25.45
2022-12-15T03:17:18.164Z,25.67
2022-12-15T03:19:21.345Z,26.17
2022-12-15T03:21:25.765Z,24.90
2022-12-15T03:23:29.490Z,25.45
2022-12-15T03:25:32.928Z,25.67
2022-12-15T03:27:37.838Z,26.10
2022-12-15T03:29:41.080Z,26.60
2022-12-15T03:31:44.352Z,25.63
2022-12-15T03:33:47.578Z,25.25
2022-12-15T03:35:51.214Z,25.02
2022-12-15T03:37:55.668Z,26.98
2022-12-15T03:39:58.716Z,26.58
2022-12-15T03:42:02.495Z,24.63
2022-12-15T03:44:05.960Z,25.92
2022-12-15T03:46:09.894Z,25.27
2022-12-15T03:48:13.080Z,24.73
2022-12-15T03:50:18.601Z,25.10
2022-12-15T03:52:22.141Z,24.50
2022-12-15T03:54:26.597Z,24.52
2022-12-15T03:56:29.642Z,24.58
2022-12-15T03:58:32.722Z,25.88
2022-12-15T04:00:35.762Z,25.67
2022-12-15T04:02:38.916Z,26.20
2022-12-15T04:04:42.078Z,25.83
2022-12-15T04:06:45.348Z,25.60
2022-12-15T04:08:49.779Z,26.20
2022-12-15T04:10:55.024Z,25.27
2022-12-15T04:12:59.520Z,24.23
2022-12-15T04:15:02.576Z,25.10
2022-12-15T04:17:05.974Z,25.92
2022-12-15T04:19:26.832Z,24.67
2022-12-15T04:21:29.974Z,26.10
2022-12-15T04:23:33.331Z,25.55
2022-12-15T04:25:55.498Z,25.85
2022-12-15T04:28:17.515Z,24.17
2022-12-15T04:30:38.197Z,24.42
2022-12-15T04:32:58.993Z,23.13
2022-12-15T04:35:19.867Z,23.98
2022-12-15T04:37:40.958Z,22.02
2022-12-15T04:40:03.745Z,22.08
2022-12-15T04:42:24.942Z,20.75
2022-12-15T04:44:49.999Z,20.60
2022-12-15T04:47:11.054Z,20.33
2022-12-15T04:49:31.758Z,20.83
2022-12-15T04:51:52.479Z,20.02
2022-12-15T04:54:13.453Z,20.58
2022-12-15T04:56:34.824Z,20.00
2022-12-15T04:58:55.220Z,21.63
2022-12-15T05:01:16.955Z,19.65
2022-12-15T05:03:38.074Z,21.02
2022-12-15T05:05:58.804Z,21.05
2022-12-15T05:08:19.290Z,22.65
2022-12-15T05:10:40.258Z,19.40
2022-12-15T05:13:00.913Z,20.88
2022-12-15T05:15:21.549Z,21.80
2022-12-15T05:17:43.792Z,21.45
2022-12-15T05:20:04.288Z,19.27
2022-12-15T05:22:25.183Z,21.52
2022-12-15T05:24:45.812Z,19.98
2022-12-15T05:27:06.292Z,19.95
2022-12-15T05:29:27.224Z,21.27
2022-12-15T05:31:52.648Z,20.23
2022-12-15T05:34:04.531Z,20.27
2022-12-15T05:36:32.497Z,20.55
2022-12-15T05:38:38.189Z,20.63
2022-12-15T05:40:41.359Z,22.50
2022-12-15T05:42:44.427Z,32.70
2022-12-15T05:44:53.704Z,21.55
2022-12-15T05:46:57.138Z,21.25
2022-12-15T05:49:03.972Z,21.55
2022-12-15T05:51:08.187Z,24.10
2022-12-15T05:53:13.962Z,22.13
2022-12-15T05:55:17.944Z,23.42
2022-12-15T05:57:21.042Z,21.73
2022-12-15T05:59:24.158Z,20.88
2022-12-15T06:01:28.064Z,19.67
2022-12-15T06:03:31.766Z,20.80
2022-12-15T06:05:36.567Z,22.45
2022-12-15T06:07:39.692Z,21.98
2022-12-15T06:09:43.603Z,22.20
2022-12-15T06:11:46.986Z,22.60
2022-12-15T06:13:50.645Z,21.60
2022-12-15T06:15:58.302Z,20.40
2022-12-15T06:18:01.644Z,22.52
2022-12-15T06:20:05.342Z,22.27
2022-12-15T06:22:11.185Z,23.42
2022-12-15T06:24:14.258Z,23.45
2022-12-15T06:26:20.495Z,22.10
2022-12-15T06:28:25.090Z,22.95
2022-12-15T06:30:28.248Z,22.88
2022-12-15T06:32:31.421Z,23.25
2022-12-15T06:34:34.594Z,21.52
2022-12-15T06:36:37.985Z,25.48
2022-12-15T06:38:43.654Z,23.35
2022-12-15T06:40:46.833Z,22.55
2022-12-15T06:42:50.012Z,22.48
2022-12-15T06:44:53.112Z,21.60
2022-12-15T06:46:56.280Z,23.05
2022-12-15T06:49:00.345Z,23.95
2022-12-15T06:51:05.410Z,23.15
2022-12-15T06:53:08.628Z,24.88
2022-12-15T06:55:14.246Z,23.50
2022-12-15T06:57:17.423Z,23.90
2022-12-15T06:59:20.711Z,25.60
2022-12-15T07:01:24.952Z,24.38
2022-12-15T07:03:28.508Z,23.27
2022-12-15T07:05:32.019Z,22.27
2022-12-15T07:07:35.261Z,22.70
2022-12-15T07:09:38.420Z,22.77
2022-12-15T07:11:51.327Z,23.33
2022-12-15T07:13:54.951Z,22.20
2022-12-15T07:16:00.644Z,23.23
2022-12-15T07:18:04.559Z,22.23
2022-12-15T07:20:08.870Z,22.95
2022-12-15T07:22:12.284Z,28.50
2022-12-15T07:24:15.549Z,23.52
2022-12-15T07:26:18.898Z,22.33
2022-12-15T07:28:25.969Z,21.90
2022-12-15T07:30:33.599Z,25.95
2022-12-15T07:32:40.199Z,21.85
2022-12-15T07:34:43.503Z,23.00
2022-12-15T07:36:52.086Z,22.65
2022-12-15T07:39:00.913Z,25.02
2022-12-15T07:41:05.690Z,23.33
2022-12-15T07:43:09.120Z,26.45
2022-12-15T07:45:14.254Z,25.05
2022-12-15T07:47:17.474Z,23.83
2022-12-15T07:49:21.665Z,23.02
2022-12-15T07:51:24.862Z,22.92
2022-12-15T07:53:29.080Z,24.65
2022-12-15T07:55:57.606Z,23.58
2022-12-15T07:57:55.979Z,23.95
2022-12-15T07:59:59.336Z,23.60
2022-12-15T08:02:04.623Z,23.42
2022-12-15T08:04:08.214Z,22.45
2022-12-15T08:06:13.446Z,22.35
2022-12-15T08:08:18.404Z,22.33
2022-12-15T08:10:21.633Z,22.63
2022-12-15T08:12:24.910Z,23.40
2022-12-15T08:14:28.790Z,22.35
2022-12-15T08:16:34.614Z,22.25
2022-12-15T08:18:40.041Z,22.08
2022-12-15T08:20:43.372Z,23.23
2022-12-15T08:22:46.798Z,23.35
2022-12-15T08:24:50.204Z,23.50
2022-12-15T08:26:53.622Z,21.42
2022-12-15T08:29:11.898Z,25.40
2022-12-15T08:31:22.488Z,23.50
2022-12-15T08:33:25.920Z,24.38
2022-12-15T08:35:55.295Z,22.10
2022-12-15T08:37:53.877Z,22.88
2022-12-15T08:39:57.255Z,23.20
2022-12-15T08:42:03.193Z,27.08
2022-12-15T08:44:06.565Z,25.63
2022-12-15T08:46:10.059Z,25.08
2022-12-15T08:48:13.326Z,31.05
2022-12-15T08:50:17.219Z,29.98
2022-12-15T08:52:21.863Z,24.52
2022-12-15T08:54:25.080Z,25.63
2022-12-15T08:56:30.336Z,26.10
2022-12-15T08:58:33.884Z,24.77
2022-12-15T09:00:37.047Z,24.80
2022-12-15T09:02:40.486Z,24.63
2022-12-15T09:04:45.325Z,24.15
2022-12-15T09:06:50.803Z,24.85
2022-12-15T09:08:57.632Z,24.00
2022-12-15T09:11:01.364Z,25.67
2022-12-15T09:13:04.583Z,24.95
2022-12-15T09:15:08.700Z,25.60
2022-12-15T09:17:12.835Z,24.30
2022-12-15T09:19:16.156Z,24.23
2022-12-15T09:21:22.432Z,22.73
2022-12-15T09:23:25.529Z,24.40
2022-12-15T09:25:30.240Z,23.40
2022-12-15T09:27:35.027Z,22.92
2022-12-15T09:29:38.268Z,21.67
2022-12-15T09:31:44.697Z,21.67
2022-12-15T09:33:48.175Z,21.90
2022-12-15T09:35:51.736Z,21.55
2022-12-15T09:37:55.004Z,22.88
2022-12-15T09:39:58.205Z,22.67
2022-12-15T09:42:02.882Z,22.20
2022-12-15T09:44:10.991Z,22.65
2022-12-15T09:46:22.143Z,24.70
2022-12-15T09:48:26.271Z,21.15
2022-12-15T09:50:36.057Z,36.35
2022-12-15T09:52:50.736Z,32.40
2022-12-15T09:54:54.782Z,22.08
2022-12-15T09:57:04.498Z,22.15
2022-12-15T09:59:20.626Z,22.75
2022-12-15T10:01:29.269Z,21.60
2022-12-15T10:03:42.271Z,23.00
2022-12-15T10:06:15.451Z,22.95
2022-12-15T10:08:20.736Z,21.52
2022-12-15T10:10:27.199Z,21.90
2022-12-15T10:12:34.382Z,23.60
2022-12-15T10:14:41.109Z,22.33
2022-12-15T10:16:52.816Z,23.25
2022-12-15T10:19:09.216Z,22.98
2022-12-15T10:21:14.767Z,28.25
2022-12-15T10:23:19.243Z,24.27
2022-12-15T10:28:04.787Z,22.80
2022-12-15T10:30:11.617Z,23.83
2022-12-15T10:32:18.851Z,21.50
2022-12-15T10:34:27.430Z,21.88
2022-12-15T10:36:30.783Z,22.75
2022-12-15T10:38:50.864Z,22.45
2022-12-15T10:41:02.417Z,22.23
2022-12-15T10:43:14.525Z,21.58
2022-12-15T10:45:36.765Z,22.42
2022-12-15T10:47:40.065Z,21.38
2022-12-15T10:49:43.393Z,22.00
2022-12-15T10:51:50.722Z,23.75
2022-12-15T10:53:55.250Z,22.00
2022-12-15T10:56:01.460Z,22.80
2022-12-15T10:58:21.597Z,21.08
2022-12-15T11:00:29.948Z,21.25
2022-12-15T11:02:36.692Z,22.23
2022-12-15T11:04:40.549Z,21.63
2022-12-15T11:06:44.097Z,21.75
2022-12-15T11:08:49.678Z,20.85
2022-12-15T11:11:45.097Z,21.20
2022-12-15T11:14:11.410Z,21.17
2022-12-15T11:16:19.950Z,20.70
2022-12-15T11:18:29.048Z,21.67
2022-12-15T11:20:36.076Z,20.60
2022-12-15T11:22:43.424Z,20.67
2022-12-15T11:25:06.355Z,21.58
2022-12-15T11:27:22.375Z,23.38
2022-12-15T11:29:30.103Z,21.88
2022-12-15T11:31:38.420Z,21.80
2022-12-15T11:33:41.582Z,22.08
2022-12-15T11:35:54.915Z,22.00
2022-12-15T11:38:01.902Z,22.50
2022-12-15T11:40:34.810Z,20.95
2022-12-15T11:42:53.713Z,22.13
2022-12-15T11:45:04.498Z,21.15
2022-12-15T11:47:14.529Z,20.75
2022-12-15T11:49:45.422Z,22.27
2022-12-15T11:51:53.168Z,22.88
2022-12-15T11:54:06.783Z,21.45
2022-12-15T11:56:18.196Z,21.00
2022-12-15T11:58:37.768Z,22.73
2022-12-15T12:00:44.625Z,19.35
2022-12-15T12:02:59.778Z,21.10
2022-12-15T12:05:22.464Z,20.13
2022-12-15T12:07:34.603Z,22.30
2022-12-15T12:09:48.592Z,22.02
2022-12-15T12:11:55.484Z,22.17
2022-12-15T12:14:26.390Z,21.17
2022-12-15T12:16:37.708Z,20.55
2022-12-15T12:18:43.689Z,20.73
2022-12-15T12:20:51.508Z,20.10
2022-12-15T12:23:03.164Z,21.30
2022-12-15T12:25:12.261Z,21.30
2022-12-15T12:27:23.725Z,21.88
2022-12-15T12:29:31.155Z,22.85
2022-12-15T12:31:42.005Z,22.45
2022-12-15T12:33:48.600Z,19.60
2022-12-15T12:35:55.169Z,20.92
2022-12-15T12:38:04.134Z,22.25
2022-12-15T12:40:17.640Z,22.13
2022-12-15T12:42:26.112Z,20.83
2022-12-15T12:44:33.410Z,20.42
2022-12-15T12:46:42.375Z,20.25
2022-12-15T12:49:14.151Z,19.63
2022-12-15T12:51:25.076Z,22.05
2022-12-15T12:53:34.042Z,19.30
2022-12-15T12:55:40.664Z,22.17
2022-12-15T12:57:44.668Z,21.55
2022-12-15T12:59:51.244Z,18.92
2022-12-15T13:01:56.253Z,19.40
2022-12-15T13:04:13.435Z,20.40
2022-12-15T13:06:43.818Z,22.60
2022-12-15T13:08:51.678Z,19.25
2022-12-15T13:10:56.169Z,19.50
2022-12-15T13:13:00.030Z,21.33
2022-12-15T13:15:07.707Z,25.77
2022-12-15T13:17:27.197Z,17.23
2022-12-15T13:20:04.273Z,20.45
2022-12-15T13:22:24.534Z,19.10
2022-12-15T13:24:33.305Z,18.30
2022-12-15T13:26:36.512Z,20.77
2022-12-15T13:28:45.898Z,18.50
2022-12-15T13:31:27.779Z,17.08
2022-12-15T13:33:31.616Z,18.92
2022-12-15T13:35:35.186Z,17.80
2022-12-15T13:37:46.725Z,20.92
2022-12-15T13:39:57.618Z,17.45
2022-12-15T13:42:35.000Z,16.27
2022-12-15T13:44:41.405Z,15.85
2022-12-15T13:46:46.866Z,16.90
2022-12-15T13:48:54.527Z,15.57
2022-12-15T13:51:03.775Z,15.65
2022-12-15T13:53:30.841Z,16.70
2022-12-15T13:55:38.820Z,16.58
2022-12-15T13:57:50.015Z,16.30
2022-12-15T13:59:54.530Z,16.08
2022-12-15T14:01:57.944Z,16.30
2022-12-15T14:04:08.074Z,15.35
2022-12-15T14:06:15.297Z,14.93
2022-12-15T14:08:19.972Z,15.80
2022-12-15T14:10:26.672Z,15.25
2022-12-15T14:12:34.790Z,16.73
2022-12-15T14:14:45.557Z,15.73
2022-12-15T14:16:59.306Z,16.17
2022-12-15T14:19:14.621Z,15.55
2022-12-15T14:21:23.027Z,14.32
2022-12-15T14:23:28.945Z,15.20
2022-12-15T14:25:32.746Z,14.80
2022-12-15T14:27:37.530Z,14.75
2022-12-15T14:29:42.057Z,16.52
2022-12-15T14:31:46.371Z,16.23
2022-12-15T14:33:54.425Z,16.05
2022-12-15T14:35:59.383Z,15.48
2022-12-15T14:38:07.508Z,15.48
2022-12-15T14:40:15.908Z,15.90
2022-12-15T14:42:20.986Z,16.38
2022-12-15T14:44:38.093Z,16.33
2022-12-15T14:46:47.086Z,15.50
2022-12-15T14:48:56.825Z,16.60
2022-12-15T14:51:01.778Z,16.30
2022-12-15T14:53:07.732Z,15.90
2022-12-15T14:55:31.966Z,17.27
2022-12-15T14:57:42.094Z,16.50
2022-12-15T14:59:49.848Z,16.52
2022-12-15T15:02:00.522Z,18.25
2022-12-15T15:03:03.980Z,25.33
2022-12-15T15:04:05.570Z,15.40
2022-12-15T15:06:18.169Z,16.70
2022-12-15T15:08:28.519Z,16.77
2022-12-15T15:10:32.229Z,16.40
2022-12-15T15:12:43.648Z,15.15
2022-12-15T15:14:55.739Z,15.98
2022-12-15T15:17:05.069Z,17.65
2022-12-15T15:19:08.511Z,17.38
2022-12-15T15:21:25.047Z,18.50
2022-12-15T15:23:28.213Z,21.05
2022-12-15T15:25:41.328Z,18.33
2022-12-15T15:27:44.755Z,17.65
2022-12-15T15:29:50.234Z,19.80
2022-12-15T15:31:54.333Z,19.10
2022-12-15T15:33:58.956Z,17.55
2022-12-15T15:36:04.373Z,21.25
2022-12-15T15:38:23.140Z,20.02
2022-12-15T15:40:26.667Z,19.63
2022-12-15T15:42:32.650Z,18.73
2022-12-15T15:44:36.202Z,19.30
2022-12-15T15:46:46.613Z,19.10
2022-12-15T15:48:52.086Z,17.83
2022-12-15T15:50:55.922Z,18.30
2022-12-15T15:53:03.135Z,17.55
2022-12-15T15:55:07.416Z,18.17
2022-12-15T15:57:14.493Z,18.23
2022-12-15T15:59:21.047Z,19.40
2022-12-15T16:08:48.894Z,19.35
2022-12-15T16:10:52.618Z,16.60
2022-12-15T16:12:58.022Z,19.77
2022-12-15T16:15:01.086Z,19.55
2022-12-15T16:17:04.822Z,17.08
2022-12-15T16:19:08.029Z,17.85
2022-12-15T16:21:11.788Z,20.65
2022-12-15T16:23:16.562Z,18.25
2022-12-15T16:25:25.675Z,18.38
2022-12-15T16:27:28.933Z,17.45
2022-12-15T16:29:32.089Z,17.48
2022-12-15T16:31:41.332Z,17.77
2022-12-15T16:33:46.763Z,18.48
2022-12-15T16:35:50.945Z,19.88
2022-12-15T16:37:54.144Z,18.50
2022-12-15T16:39:57.308Z,18.33
2022-12-15T16:42:01.981Z,16.98
2022-12-15T16:44:05.926Z,17.60
2022-12-15T16:46:12.638Z,19.15
2022-12-15T16:48:16.288Z,19.67
2022-12-15T16:50:21.096Z,18.02
2022-12-15T16:52:24.419Z,19.92
2022-12-15T16:54:28.585Z,18.25
2022-12-15T16:56:31.799Z,17.92
2022-12-15T16:58:37.166Z,17.33
2022-12-15T17:00:40.366Z,18.67
2022-12-15T17:02:44.535Z,17.80
2022-12-15T17:04:47.852Z,19.80
2022-12-15T17:06:52.571Z,18.73
2022-12-15T17:08:56.418Z,18.88
2022-12-15T17:10:59.942Z,16.83
2022-12-15T17:13:06.004Z,16.80
2022-12-15T17:15:17.695Z,18.42
2022-12-15T17:17:21.276Z,17.58
2022-12-15T17:19:27.303Z,18.70
2022-12-15T17:21:31.863Z,18.75
2022-12-15T17:23:36.357Z,17.48
2022-12-15T17:28:05.587Z,18.65
2022-12-15T17:30:15.133Z,19.25
2022-12-15T17:32:18.449Z,17.88
2022-12-15T17:34:27.458Z,19.58
2022-12-15T17:36:30.595Z,18.10
2022-12-15T17:38:33.852Z,18.80
2022-12-15T17:40:37.108Z,17.05
2022-12-15T17:42:40.455Z,18.60
2022-12-15T17:44:46.727Z,18.52
2022-12-15T17:46:51.940Z,17.52
2022-12-15T17:49:00.941Z,17.75
2022-12-15T17:51:04.186Z,18.80
2022-12-15T17:53:07.675Z,19.08
2022-12-15T17:55:23.635Z,19.48
2022-12-15T17:57:27.057Z,19.20
2022-12-15T17:59:32.260Z,18.27
2022-12-15T18:01:35.514Z,21.98
2022-12-15T18:03:40.391Z,21.75
2022-12-15T18:05:43.839Z,18.65
2022-12-15T18:07:50.049Z,17.63
2022-12-15T18:09:53.573Z,22.83
2022-12-15T18:11:56.865Z,20.98
2022-12-15T18:14:00.427Z,18.77
2022-12-15T18:16:03.801Z,19.52
2022-12-15T18:18:09.590Z,17.73
2022-12-15T18:20:14.425Z,16.48
2022-12-15T18:22:21.105Z,22.20
2022-12-15T18:24:27.012Z,19.75
2022-12-15T18:26:31.544Z,22.67
2022-12-15T18:28:36.282Z,20.92
2022-12-15T18:30:39.559Z,19.88
2022-12-15T18:32:42.847Z,19.30
2022-12-15T18:34:46.738Z,18.40
2022-12-15T18:36:51.589Z,18.80
2022-12-15T18:38:54.930Z,19.15
2022-12-15T18:40:59.813Z,17.83
2022-12-15T18:43:03.029Z,23.02
2022-12-15T18:45:16.718Z,19.70
2022-12-15T18:47:21.332Z,19.00
2022-12-15T18:49:25.073Z,18.35
2022-12-15T18:51:28.999Z,18.30
2022-12-15T18:53:35.656Z,19.88
2022-12-15T18:55:39.017Z,19.52
2022-12-15T18:57:42.558Z,19.65
2022-12-15T18:59:45.727Z,19.38
2022-12-15T19:01:50.028Z,19.00
2022-12-15T19:03:53.442Z,17.35
2022-12-15T19:05:59.962Z,18.55
2022-12-15T19:08:10.027Z,18.67
2022-12-15T19:10:16.118Z,19.25
2022-12-15T19:12:19.664Z,19.70
2022-12-15T19:14:36.885Z,17.70
2022-12-15T19:16:57.743Z,19.23
2022-12-15T19:19:18.596Z,19.98
2022-12-15T19:21:41.613Z,19.27
2022-12-15T19:23:44.914Z,18.77
2022-12-15T19:25:50.706Z,19.27
2022-12-15T19:27:58.658Z,20.52
2022-12-15T19:30:02.370Z,19.55
2022-12-15T19:32:05.921Z,18.33
2022-12-15T19:34:09.301Z,20.17
2022-12-15T19:36:15.435Z,19.45
2022-12-15T19:38:33.267Z,17.30
2022-12-15T19:40:38.770Z,20.08
2022-12-15T19:42:44.434Z,18.55
2022-12-15T19:44:48.531Z,20.30
2022-12-15T19:46:52.404Z,19.00
2022-12-15T19:48:55.631Z,18.50
2022-12-15T19:50:58.846Z,20.23
2022-12-15T19:53:03.462Z,17.98
2022-12-15T19:55:08.613Z,18.70
2022-12-15T19:57:13.743Z,21.67
2022-12-15T19:59:41.385Z,18.25
2022-12-15T20:01:44.829Z,19.08
2022-12-15T20:03:49.899Z,18.50
2022-12-15T20:05:54.192Z,16.92
2022-12-15T20:07:57.442Z,18.13
2022-12-15T20:10:00.809Z,18.77
2022-12-15T20:12:04.003Z,19.00
2022-12-15T20:14:11.433Z,18.05
2022-12-15T20:16:18.847Z,18.98
2022-12-15T20:18:22.170Z,19.98
2022-12-15T20:20:27.375Z,20.75
2022-12-15T20:22:30.586Z,18.52
2022-12-15T20:24:34.348Z,18.60
2022-12-15T20:26:39.488Z,18.20
2022-12-15T20:28:43.152Z,18.05
2022-12-15T20:30:46.995Z,22.02
2022-12-15T20:32:51.647Z,18.13
2022-12-15T20:34:54.868Z,18.58
2022-12-15T20:36:58.188Z,18.67
2022-12-15T20:39:01.451Z,20.15
2022-12-15T20:41:04.799Z,18.67
2022-12-15T20:43:13.230Z,18.25
2022-12-15T20:45:17.181Z,18.27
2022-12-15T20:47:22.250Z,17.65
2022-12-15T20:49:32.061Z,19.80
2022-12-15T20:51:35.370Z,17.75
2022-12-15T20:53:39.161Z,19.45
2022-12-15T20:55:42.395Z,18.80
2022-12-15T20:57:45.689Z,18.55
2022-12-15T20:59:48.983Z,18.15
2022-12-15T21:01:52.630Z,19.58
2022-12-15T21:03:59.048Z,18.58
2022-12-15T21:06:03.776Z,18.55
2022-12-15T21:08:15.665Z,21.65
2022-12-15T21:10:20.766Z,20.10
2022-12-15T21:12:26.528Z,25.73
2022-12-15T21:14:29.791Z,20.33
2022-12-15T21:16:33.937Z,18.17
2022-12-15T21:19:18.608Z,20.63
2022-12-15T21:21:03.017Z,21.73
2022-12-15T21:23:06.404Z,19.48
2022-12-15T21:25:18.448Z,18.65
2022-12-15T21:27:22.099Z,19.50
2022-12-15T21:29:26.975Z,19.63
2022-12-15T21:31:30.244Z,19.08
2022-12-15T21:33:33.613Z,17.27
2022-12-15T21:35:37.566Z,18.67
2022-12-15T21:37:43.282Z,18.42
2022-12-15T21:39:46.468Z,18.08
2022-12-15T21:41:49.851Z,19.50
2022-12-15T21:43:54.977Z,20.50
2022-12-15T21:45:58.641Z,23.30
2022-12-15T21:48:19.095Z,18.40
2022-12-15T21:50:22.433Z,18.83
2022-12-15T21:52:26.981Z,18.40
2022-12-15T21:54:34.039Z,18.42
2022-12-15T21:56:37.193Z,17.85
2022-12-15T21:58:40.377Z,19.48
2022-12-15T22:00:45.726Z,18.35
2022-12-15T22:02:50.761Z,24.60
2022-12-15T22:04:55.067Z,22.90
2022-12-15T22:06:58.565Z,19.67
2022-12-15T22:09:01.705Z,18.33
2022-12-15T22:11:17.834Z,18.08
2022-12-15T22:13:22.731Z,19.33
2022-12-15T22:15:26.350Z,19.02
2022-12-15T22:17:29.731Z,19.23
2022-12-15T22:19:32.977Z,20.45
2022-12-15T22:21:36.173Z,26.30
2022-12-15T22:23:39.330Z,19.15
2022-12-15T22:25:42.851Z,19.27
2022-12-15T22:27:47.585Z,20.70
2022-12-15T22:29:51.044Z,20.13
2022-12-15T22:31:55.016Z,19.95
2022-12-15T22:33:58.356Z,19.83
2022-12-15T22:36:01.564Z,20.08
2022-12-15T22:38:04.697Z,21.50
2022-12-15T22:40:08.962Z,19.42
2022-12-15T22:42:16.060Z,22.55
2022-12-15T22:44:23.186Z,22.25
2022-12-15T22:46:26.388Z,20.48
2022-12-15T22:48:34.439Z,21.75
2022-12-15T22:50:37.703Z,21.30
2022-12-15T22:52:40.842Z,23.20
2022-12-15T22:54:45.907Z,21.45
2022-12-15T22:56:51.995Z,20.05
2022-12-15T22:58:58.590Z,21.10
2022-12-15T23:01:03.532Z,22.85
2022-12-15T23:03:09.166Z,22.60
2022-12-15T23:05:15.182Z,21.63
2022-12-15T23:07:19.860Z,21.73
2022-12-15T23:09:23.033Z,22.75
2022-12-15T23:11:37.093Z,20.90
2022-12-15T23:13:40.255Z,21.40
2022-12-15T23:16:01.561Z,20.45
2022-12-15T23:18:06.375Z,20.45
2022-12-15T23:20:10.817Z,21.55
2022-12-15T23:22:14.649Z,22.75
2022-12-15T23:24:17.901Z,22.35
2022-12-15T23:26:23.309Z,21.58
2022-12-15T23:28:27.698Z,20.83
2022-12-15T23:30:31.171Z,21.52
2022-12-15T23:32:34.538Z,20.95
2022-12-15T23:34:39.250Z,20.25
2022-12-15T23:36:42.532Z,21.10
2022-12-15T23:38:46.361Z,20.80
2022-12-15T23:40:52.692Z,20.25
2022-12-15T23:42:56.215Z,19.17
2022-12-15T23:44:59.494Z,19.13
2022-12-15T23:47:02.756Z,18.15
2022-12-15T23:49:06.711Z,18.27
2022-12-15T23:51:16.204Z,19.63
2022-12-15T23:53:19.385Z,19.83
2022-12-15T23:55:22.544Z,18.60
2022-12-15T23:57:25.791Z,19.10
2022-12-15T23:59:29.191Z,19.52
